createdAt,value
2023-05-09T00:00:14.110Z,99.90
2023-05-09T00:02:46.177Z,99.90
2023-05-09T00:05:15.963Z,99.90
2023-05-09T00:07:44.662Z,99.90
2023-05-09T00:10:14.706Z,99.90
2023-05-09T00:12:44.430Z,99.90
2023-05-09T00:15:14.010Z,99.90
2023-05-09T00:17:42.986Z,99.90
2023-05-09T00:20:13.408Z,99.90
2023-05-09T00:22:42.705Z,99.90
2023-05-09T00:25:12.869Z,99.90
2023-05-09T00:27:42.995Z,99.90
2023-05-09T00:30:13.122Z,99.90
2023-05-09T00:32:42.043Z,99.90
2023-05-09T00:35:11.206Z,99.90
2023-05-09T00:37:39.895Z,99.90
2023-05-09T00:40:09.966Z,99.90
2023-05-09T00:42:39.069Z,99.90
2023-05-09T00:45:10.568Z,99.90
2023-05-09T00:47:39.766Z,99.90
2023-05-09T00:50:09.951Z,99.90
2023-05-09T00:52:40.526Z,99.90
2023-05-09T00:55:12.716Z,99.90
2023-05-09T00:57:41.521Z,99.90
2023-05-09T01:00:13.593Z,99.90
2023-05-09T01:02:44.382Z,99.90
2023-05-09T01:05:15.102Z,99.90
2023-05-09T01:07:51.807Z,99.90
2023-05-09T01:10:32.695Z,99.90
2023-05-09T01:13:07.543Z,99.90
2023-05-09T01:15:42.818Z,99.90
2023-05-09T01:18:18.426Z,99.90
2023-05-09T01:20:53.439Z,99.90
2023-05-09T01:23:51.376Z,99.90
2023-05-09T01:26:26.593Z,99.90
2023-05-09T01:29:21.494Z,99.90
2023-05-09T01:31:53.339Z,99.90
2023-05-09T01:34:25.777Z,99.90
2023-05-09T01:37:00.036Z,99.90
2023-05-09T01:39:29.815Z,99.90
2023-05-09T01:42:01.423Z,99.90
2023-05-09T01:44:36.824Z,99.90
2023-05-09T01:47:06.532Z,99.90
2023-05-09T01:49:37.448Z,99.90
2023-05-09T01:52:10.206Z,99.90
2023-05-09T01:54:41.574Z,99.90
2023-05-09T01:57:11.611Z,99.90
2023-05-09T01:59:43.001Z,99.90
2023-05-09T02:02:12.556Z,99.90
2023-05-09T02:04:42.928Z,99.90
2023-05-09T02:07:13.016Z,99.90
2023-05-09T02:09:41.980Z,99.90
2023-05-09T02:12:10.896Z,99.90
2023-05-09T02:14:39.493Z,99.90
2023-05-09T02:17:10.881Z,99.90
2023-05-09T02:19:39.482Z,99.90
2023-05-09T02:22:08.045Z,99.90
2023-05-09T02:24:36.926Z,99.90
2023-05-09T02:27:07.299Z,99.90
2023-05-09T02:29:40.884Z,99.90
2023-05-09T02:32:15.534Z,99.90
2023-05-09T02:34:46.653Z,99.90
2023-05-09T02:37:16.977Z,99.90
2023-05-09T02:39:46.173Z,99.90
2023-05-09T02:42:17.626Z,99.90
2023-05-09T02:44:46.906Z,99.90
2023-05-09T02:47:18.947Z,99.90
2023-05-09T02:49:48.144Z,99.90
2023-05-09T02:52:17.999Z,99.90
2023-05-09T02:54:48.174Z,99.90
2023-05-09T02:57:16.741Z,99.90
2023-05-09T02:59:45.493Z,99.90
2023-05-09T03:02:14.434Z,99.90
2023-05-09T03:04:44.778Z,99.90
2023-05-09T03:07:13.592Z,99.90
2023-05-09T03:09:42.392Z,99.90
2023-05-09T03:12:11.061Z,99.90
2023-05-09T03:14:39.639Z,99.90
2023-05-09T03:17:08.195Z,99.90
2023-05-09T03:19:38.170Z,99.90
2023-05-09T03:22:08.644Z,99.90
2023-05-09T03:24:44.481Z,99.90
2023-05-09T03:27:13.253Z,99.90
2023-05-09T03:29:42.088Z,99.90
2023-05-09T03:32:11.341Z,99.90
2023-05-09T03:34:41.039Z,99.90
2023-05-09T03:37:11.652Z,99.90
2023-05-09T03:39:42.366Z,99.90
2023-05-09T03:42:11.286Z,99.90
2023-05-09T03:44:41.162Z,99.90
2023-05-09T03:47:09.777Z,99.90
2023-05-09T03:49:41.746Z,99.90
2023-05-09T03:52:13.946Z,99.90
2023-05-09T03:54:42.828Z,99.90
2023-05-09T03:57:11.427Z,99.90
2023-05-09T03:59:40.041Z,99.90
2023-05-09T04:02:08.722Z,99.90
2023-05-09T04:04:37.749Z,99.90
2023-05-09T04:07:07.013Z,99.90
2023-05-09T04:09:37.720Z,99.90
2023-05-09T04:12:06.704Z,99.90
2023-05-09T04:14:35.385Z,99.90
2023-05-09T04:17:04.425Z,99.90
2023-05-09T04:19:33.121Z,99.90
2023-05-09T04:22:01.702Z,99.90
2023-05-09T04:24:30.583Z,99.90
2023-05-09T04:27:01.065Z,99.90
2023-05-09T04:29:29.929Z,99.90
2023-05-09T04:32:00.527Z,99.90
2023-05-09T04:34:29.895Z,99.90
2023-05-09T04:37:02.431Z,99.90
2023-05-09T04:39:32.227Z,99.90
2023-05-09T04:42:13.937Z,99.90
2023-05-09T04:44:42.665Z,99.90
2023-05-09T04:47:11.946Z,99.90
2023-05-09T04:49:42.075Z,99.90
2023-05-09T04:52:10.607Z,99.90
2023-05-09T04:54:39.643Z,99.90
2023-05-09T04:57:17.989Z,99.90
2023-05-09T04:59:53.318Z,99.90
2023-05-09T05:02:22.689Z,99.90
2023-05-09T05:05:02.967Z,99.90
2023-05-09T05:07:40.957Z,99.90
2023-05-09T05:10:11.211Z,99.90
2023-05-09T05:12:43.336Z,99.90
2023-05-09T05:15:15.094Z,99.90
2023-05-09T05:17:46.522Z,99.90
2023-05-09T05:20:17.143Z,99.90
2023-05-09T05:22:48.247Z,99.90
2023-05-09T05:25:18.149Z,99.90
2023-05-09T05:27:51.405Z,99.90
2023-05-09T05:30:21.547Z,99.90
2023-05-09T05:32:51.419Z,99.90
2023-05-09T05:35:24.938Z,99.90
2023-05-09T05:37:54.834Z,99.90
2023-05-09T05:40:24.196Z,99.90
2023-05-09T05:42:56.291Z,99.90
2023-05-09T05:45:26.205Z,99.90
2023-05-09T05:47:58.252Z,99.90
2023-05-09T05:50:26.997Z,99.90
2023-05-09T05:52:55.836Z,99.90
2023-05-09T05:55:25.086Z,99.90
2023-05-09T05:57:56.129Z,99.90
2023-05-09T06:00:24.884Z,99.90
2023-05-09T06:03:01.067Z,99.90
2023-05-09T06:05:36.437Z,99.90
2023-05-09T06:08:05.932Z,99.90
2023-05-09T06:10:34.559Z,99.90
2023-05-09T06:13:05.028Z,99.90
2023-05-09T06:15:34.328Z,99.90
2023-05-09T06:18:03.372Z,99.90
2023-05-09T06:20:32.125Z,99.90
2023-05-09T06:23:00.645Z,99.90
2023-05-09T06:25:30.267Z,99.90
2023-05-09T06:27:58.826Z,99.90
2023-05-09T06:30:29.077Z,99.90
2023-05-09T06:32:59.519Z,99.90
2023-05-09T06:35:30.847Z,99.90
2023-05-09T06:37:59.388Z,99.90
2023-05-09T06:40:28.053Z,99.90
2023-05-09T06:42:56.983Z,99.90
2023-05-09T06:45:26.659Z,99.90
2023-05-09T06:47:57.259Z,99.90
2023-05-09T06:50:25.973Z,99.90
2023-05-09T06:52:54.480Z,99.90
2023-05-09T06:55:23.086Z,99.90
2023-05-09T06:57:51.656Z,99.90
2023-05-09T07:00:21.162Z,99.90
2023-05-09T07:02:49.831Z,99.90
2023-05-09T07:05:21.223Z,99.90
2023-05-09T07:07:49.917Z,99.90
2023-05-09T07:10:18.803Z,99.90
2023-05-09T07:12:47.454Z,99.90
2023-05-09T07:15:22.938Z,99.90
2023-05-09T07:18:01.593Z,99.90
2023-05-09T07:20:32.243Z,97.60
2023-05-09T07:23:00.890Z,96.30
2023-05-09T07:25:29.997Z,99.40
2023-05-09T07:27:59.973Z,99.90
2023-05-09T07:30:28.567Z,98.00
2023-05-09T07:32:57.359Z,97.30
2023-05-09T07:35:26.636Z,96.90
2023-05-09T07:37:56.698Z,96.40
2023-05-09T07:40:25.315Z,96.00
2023-05-09T07:42:55.599Z,95.20
2023-05-09T07:45:24.692Z,94.20
2023-05-09T07:47:54.014Z,94.70
2023-05-09T07:50:23.463Z,94.00
2023-05-09T07:52:53.549Z,95.20
2023-05-09T07:55:24.350Z,94.90
2023-05-09T07:57:54.332Z,94.30
2023-05-09T08:00:24.486Z,92.80
2023-05-09T08:02:56.417Z,91.70
2023-05-09T08:05:26.169Z,91.90
2023-05-09T08:07:55.323Z,92.10
2023-05-09T08:10:26.970Z,91.50
2023-05-09T08:12:56.167Z,87.50
2023-05-09T08:15:25.953Z,89.50
2023-05-09T08:17:55.208Z,86.20
2023-05-09T08:20:24.539Z,87.50
2023-05-09T08:22:53.154Z,81.40
2023-05-09T08:25:22.292Z,80.30
2023-05-09T08:27:53.149Z,80.30
2023-05-09T08:30:22.137Z,82.60
2023-05-09T08:32:50.824Z,78.80
2023-05-09T08:35:20.120Z,77.30
2023-05-09T08:37:49.304Z,76.80
2023-05-09T08:40:18.584Z,75.10
2023-05-09T08:42:50.339Z,77.20
2023-05-09T08:45:32.109Z,73.70
2023-05-09T08:48:04.097Z,76.70
2023-05-09T08:50:33.496Z,76.60
2023-05-09T08:53:02.656Z,75.20
2023-05-09T08:55:31.827Z,72.40
2023-05-09T08:58:00.955Z,70.00
2023-05-09T09:00:32.812Z,71.90
2023-05-09T09:03:04.533Z,65.10
2023-05-09T09:05:41.771Z,66.90
2023-05-09T09:08:12.471Z,66.50
2023-05-09T09:10:43.593Z,63.50
2023-05-09T09:13:14.943Z,65.50
2023-05-09T09:15:47.181Z,60.50
2023-05-09T09:18:29.637Z,61.50
2023-05-09T09:21:01.913Z,58.50
2023-05-09T09:23:32.118Z,54.10
2023-05-09T09:26:02.832Z,57.90
2023-05-09T09:28:32.760Z,57.40
2023-05-09T09:31:03.624Z,56.90
2023-05-09T09:33:32.292Z,57.00
2023-05-09T09:36:01.263Z,59.00
2023-05-09T09:38:31.465Z,58.90
2023-05-09T09:41:01.051Z,53.30
2023-05-09T09:43:31.321Z,53.50
2023-05-09T09:46:04.914Z,56.70
2023-05-09T09:48:36.369Z,55.40
2023-05-09T09:51:11.840Z,53.70
2023-05-09T09:53:41.694Z,54.80
2023-05-09T09:56:11.453Z,55.30
2023-05-09T09:58:40.826Z,55.20
2023-05-09T10:01:14.609Z,54.90
2023-05-09T10:03:45.307Z,57.60
2023-05-09T10:06:15.706Z,51.40
2023-05-09T10:08:47.110Z,53.80
2023-05-09T10:11:17.024Z,52.40
2023-05-09T10:13:46.890Z,52.20
2023-05-09T10:18:47.371Z,52.00
2023-05-09T10:21:17.944Z,50.50
2023-05-09T10:23:50.241Z,48.30
2023-05-09T10:26:23.592Z,51.10
2023-05-09T10:28:56.518Z,54.10
2023-05-09T10:31:28.728Z,51.80
2023-05-09T10:33:59.021Z,53.60
2023-05-09T10:36:29.170Z,50.60
2023-05-09T10:38:58.420Z,50.90
2023-05-09T10:41:29.171Z,50.00
2023-05-09T10:44:01.179Z,51.90
2023-05-09T10:46:34.044Z,51.40
2023-05-09T10:49:03.673Z,47.10
2023-05-09T10:51:33.518Z,50.60
2023-05-09T10:54:02.828Z,47.80
2023-05-09T10:56:33.510Z,48.70
2023-05-09T10:59:05.713Z,54.60
2023-05-09T11:01:39.426Z,52.40
2023-05-09T11:04:14.758Z,46.90
2023-05-09T11:06:49.750Z,49.90
2023-05-09T11:09:35.650Z,46.60
2023-05-09T11:12:11.354Z,50.30
2023-05-09T11:14:44.357Z,49.90
2023-05-09T11:17:16.806Z,47.20
2023-05-09T11:20:07.696Z,52.20
2023-05-09T11:22:42.166Z,45.00
2023-05-09T11:25:13.533Z,45.90
2023-05-09T11:27:45.141Z,45.60
2023-05-09T11:30:17.573Z,46.20
2023-05-09T11:32:49.386Z,49.10
2023-05-09T11:35:19.863Z,46.70
2023-05-09T11:37:50.928Z,45.80
2023-05-09T11:40:21.232Z,45.10
2023-05-09T11:42:56.215Z,47.50
2023-05-09T11:45:28.728Z,49.30
2023-05-09T11:48:00.970Z,47.20
2023-05-09T11:50:30.803Z,46.60
2023-05-09T11:53:00.136Z,45.70
2023-05-09T11:55:30.649Z,45.70
2023-05-09T11:58:00.608Z,47.00
2023-05-09T12:00:29.856Z,45.40
2023-05-09T12:03:04.372Z,45.90
2023-05-09T12:05:35.289Z,43.90
2023-05-09T12:08:11.301Z,43.90
2023-05-09T12:10:41.861Z,45.60
2023-05-09T12:13:14.853Z,45.10
2023-05-09T12:15:44.474Z,48.20
2023-05-09T12:18:17.592Z,47.40
2023-05-09T12:20:52.457Z,44.70
2023-05-09T12:23:22.280Z,45.40
2023-05-09T12:25:54.894Z,45.80
2023-05-09T12:28:31.533Z,46.40
2023-05-09T12:31:02.012Z,45.40
2023-05-09T12:33:35.874Z,45.50
2023-05-09T12:36:10.412Z,44.60
2023-05-09T12:38:42.383Z,45.80
2023-05-09T12:41:30.990Z,44.60
2023-05-09T12:44:04.238Z,45.90
2023-05-09T12:46:36.287Z,45.80
2023-05-09T12:49:21.875Z,45.00
2023-05-09T12:51:51.903Z,45.10
2023-05-09T12:54:32.134Z,44.70
2023-05-09T12:57:04.106Z,43.40
2023-05-09T12:59:40.247Z,44.30
2023-05-09T13:02:10.003Z,45.60
2023-05-09T13:04:40.218Z,45.50
2023-05-09T13:07:11.771Z,43.70
2023-05-09T13:09:57.888Z,44.70
2023-05-09T13:12:30.563Z,43.80
2023-05-09T13:14:59.959Z,44.80
2023-05-09T13:17:30.459Z,45.10
2023-05-09T13:20:01.341Z,44.00
2023-05-09T13:22:30.201Z,43.40
2023-05-09T13:24:59.398Z,45.20
2023-05-09T13:27:28.910Z,46.70
2023-05-09T13:29:57.537Z,44.50
2023-05-09T13:32:26.566Z,44.80
2023-05-09T13:34:56.022Z,44.60
2023-05-09T13:37:27.147Z,42.40
2023-05-09T13:39:56.937Z,43.60
2023-05-09T13:42:25.835Z,43.50
2023-05-09T13:44:56.873Z,42.90
2023-05-09T13:47:26.136Z,43.40
2023-05-09T13:49:55.097Z,45.20
2023-05-09T13:52:24.636Z,41.40
2023-05-09T13:54:55.056Z,42.00
2023-05-09T13:57:24.266Z,42.10
2023-05-09T13:59:54.131Z,43.70
2023-05-09T14:02:24.942Z,42.50
2023-05-09T14:04:54.886Z,43.50
2023-05-09T14:07:25.082Z,43.50
2023-05-09T14:10:10.488Z,43.50
2023-05-09T14:12:44.756Z,43.40
2023-05-09T14:15:14.041Z,44.20
2023-05-09T14:17:44.084Z,43.20
2023-05-09T14:20:16.457Z,44.70
2023-05-09T14:22:45.695Z,41.00
2023-05-09T14:25:15.946Z,44.70
2023-05-09T14:27:45.231Z,43.40
2023-05-09T14:30:15.961Z,43.10
2023-05-09T14:32:45.648Z,43.40
2023-05-09T14:35:14.877Z,43.40
2023-05-09T14:37:44.145Z,42.10
2023-05-09T14:40:16.135Z,43.40
2023-05-09T14:42:45.899Z,45.00
2023-05-09T14:45:16.234Z,45.70
2023-05-09T14:47:45.344Z,43.80
2023-05-09T14:50:16.397Z,42.00
2023-05-09T14:52:45.991Z,43.30
2023-05-09T14:55:16.576Z,43.70
2023-05-09T14:57:45.501Z,44.60
2023-05-09T15:00:21.114Z,45.20
2023-05-09T15:02:51.298Z,44.90
2023-05-09T15:05:20.408Z,47.60
2023-05-09T15:07:49.874Z,47.70
2023-05-09T15:10:20.533Z,49.80
2023-05-09T15:12:50.078Z,48.60
2023-05-09T15:15:21.348Z,51.00
2023-05-09T15:17:51.046Z,52.10
2023-05-09T15:20:21.030Z,49.70
2023-05-09T15:22:51.616Z,50.90
2023-05-09T15:25:23.569Z,51.00
2023-05-09T15:27:52.300Z,50.90
2023-05-09T15:30:21.011Z,50.50
2023-05-09T15:32:50.253Z,51.10
2023-05-09T15:35:19.919Z,51.30
2023-05-09T15:37:48.865Z,52.60
2023-05-09T15:40:18.736Z,52.90
2023-05-09T15:42:49.768Z,52.80
2023-05-09T15:45:19.767Z,52.30
2023-05-09T15:47:49.294Z,51.20
2023-05-09T15:50:19.035Z,52.70
2023-05-09T15:52:48.051Z,51.80
2023-05-09T15:55:17.095Z,52.10
2023-05-09T15:57:48.431Z,53.60
2023-05-09T16:00:21.334Z,53.10
2023-05-09T16:02:51.624Z,52.60
2023-05-09T16:05:20.974Z,53.80
2023-05-09T16:07:53.542Z,52.70
2023-05-09T16:10:22.355Z,51.80
2023-05-09T16:12:52.082Z,53.10
2023-05-09T16:15:23.736Z,52.30
2023-05-09T16:17:53.153Z,52.20
2023-05-09T16:20:23.270Z,53.20
2023-05-09T16:22:52.706Z,53.20
2023-05-09T16:25:22.564Z,53.50
2023-05-09T16:27:52.046Z,54.90
2023-05-09T16:30:23.850Z,54.50
2023-05-09T16:32:53.386Z,54.00
2023-05-09T16:35:22.898Z,54.10
2023-05-09T16:37:51.746Z,54.50
2023-05-09T16:40:25.672Z,55.60
2023-05-09T16:42:56.115Z,55.30
2023-05-09T16:45:27.067Z,54.70
2023-05-09T16:48:00.069Z,54.90
2023-05-09T16:50:31.143Z,55.90
2023-05-09T16:53:00.269Z,56.40
2023-05-09T16:55:29.964Z,55.80
2023-05-09T16:57:59.835Z,55.30
2023-05-09T17:00:31.462Z,55.70
2023-05-09T17:03:01.754Z,55.70
2023-05-09T17:05:34.829Z,55.70
2023-05-09T17:08:06.537Z,55.60
2023-05-09T17:10:37.256Z,57.40
2023-05-09T17:13:09.405Z,56.00
2023-05-09T17:15:40.121Z,57.20
2023-05-09T17:18:13.615Z,57.70
2023-05-09T17:20:45.788Z,57.60
2023-05-09T17:23:15.140Z,57.60
2023-05-09T17:25:44.327Z,57.90
2023-05-09T17:28:13.410Z,59.50
2023-05-09T17:30:45.040Z,59.30
2023-05-09T17:33:14.135Z,59.80
2023-05-09T17:35:44.097Z,60.60
2023-05-09T17:38:15.665Z,60.00
2023-05-09T17:40:45.717Z,60.20
2023-05-09T17:43:16.904Z,60.40
2023-05-09T17:45:47.523Z,61.00
2023-05-09T17:48:16.881Z,61.00
2023-05-09T17:50:46.566Z,61.80
2023-05-09T17:53:15.995Z,61.20
2023-05-09T17:55:45.924Z,61.60
2023-05-09T17:58:15.583Z,63.20
2023-05-09T18:00:45.042Z,63.50
2023-05-09T18:03:16.934Z,64.20
2023-05-09T18:05:46.390Z,64.40
2023-05-09T18:08:15.536Z,64.20
2023-05-09T18:10:44.892Z,64.10
2023-05-09T18:13:14.437Z,64.80
2023-05-09T18:15:43.563Z,64.80
2023-05-09T18:18:14.540Z,65.70
2023-05-09T18:20:46.699Z,66.10
2023-05-09T18:23:16.310Z,66.60
2023-05-09T18:25:45.435Z,67.20
2023-05-09T18:28:14.391Z,68.00
2023-05-09T18:30:43.596Z,68.20
2023-05-09T18:33:13.488Z,69.00
2023-05-09T18:35:42.658Z,69.30
2023-05-09T18:38:13.956Z,70.20
2023-05-09T18:40:43.915Z,70.30
2023-05-09T18:43:13.848Z,71.20
2023-05-09T18:45:45.419Z,71.30
2023-05-09T18:48:15.207Z,70.50
2023-05-09T18:50:44.097Z,71.90
2023-05-09T18:53:15.128Z,72.50
2023-05-09T18:55:44.861Z,73.20
2023-05-09T18:58:14.377Z,74.20
2023-05-09T19:00:45.233Z,74.60
2023-05-09T19:03:13.930Z,74.40
2023-05-09T19:05:44.408Z,74.90
2023-05-09T19:08:16.730Z,74.80
2023-05-09T19:10:46.117Z,75.70
2023-05-09T19:13:16.626Z,75.80
2023-05-09T19:15:46.031Z,76.70
2023-05-09T19:18:15.363Z,77.00
2023-05-09T19:20:45.312Z,77.40
2023-05-09T19:23:16.366Z,77.60
2023-05-09T19:25:47.204Z,78.30
2023-05-09T19:28:17.787Z,78.10
2023-05-09T19:30:47.304Z,79.20
2023-05-09T19:33:16.954Z,79.40
2023-05-09T19:35:46.220Z,80.00
2023-05-09T19:38:20.711Z,80.40
2023-05-09T19:40:54.340Z,80.70
2023-05-09T19:43:23.974Z,81.20
2023-05-09T19:45:53.132Z,81.70
2023-05-09T19:48:22.010Z,82.10
2023-05-09T19:50:51.562Z,82.70
2023-05-09T19:53:24.326Z,82.60
2023-05-09T19:55:53.949Z,82.50
2023-05-09T19:58:23.298Z,83.60
2023-05-09T20:00:52.076Z,84.20
2023-05-09T20:03:23.070Z,84.60
2023-05-09T20:05:56.215Z,85.50
2023-05-09T20:08:27.581Z,85.40
2023-05-09T20:10:57.665Z,85.80
2023-05-09T20:13:27.773Z,86.00
2023-05-09T20:15:57.961Z,86.40
2023-05-09T20:18:27.327Z,87.10
2023-05-09T20:20:56.757Z,87.40
2023-05-09T20:23:27.955Z,87.20
2023-05-09T20:25:57.738Z,87.50
2023-05-09T20:28:26.985Z,87.80
2023-05-09T20:30:57.908Z,88.70
2023-05-09T20:33:27.789Z,88.00
2023-05-09T20:35:57.701Z,88.60
2023-05-09T20:38:28.404Z,88.80
2023-05-09T20:40:58.035Z,88.50
2023-05-09T20:43:27.184Z,88.40
2023-05-09T20:45:57.432Z,88.20
2023-05-09T20:48:26.983Z,88.50
2023-05-09T20:50:56.322Z,88.20
2023-05-09T20:53:28.128Z,88.50
2023-05-09T20:56:00.373Z,88.90
2023-05-09T20:58:31.618Z,89.00
2023-05-09T21:01:01.472Z,89.00
2023-05-09T21:03:30.235Z,89.50
2023-05-09T21:06:00.179Z,90.00
2023-05-09T21:08:28.829Z,89.80
2023-05-09T21:10:59.217Z,89.40
2023-05-09T21:13:28.220Z,89.20
2023-05-09T21:15:57.486Z,89.80
2023-05-09T21:18:28.133Z,89.30
2023-05-09T21:20:57.362Z,89.60
2023-05-09T21:23:26.807Z,90.10
2023-05-09T21:25:55.668Z,90.10
2023-05-09T21:28:27.178Z,90.40
2023-05-09T21:30:56.220Z,90.70
2023-05-09T21:33:25.996Z,90.90
2023-05-09T21:35:56.268Z,91.20
2023-05-09T21:38:24.998Z,91.40
2023-05-09T21:40:53.668Z,91.50
2023-05-09T21:43:24.034Z,92.10
2023-05-09T21:45:55.109Z,92.30
2023-05-09T21:48:25.160Z,92.40
2023-05-09T21:50:54.319Z,92.60
2023-05-09T21:53:23.583Z,92.60
2023-05-09T21:55:52.255Z,92.80
2023-05-09T21:58:21.322Z,93.00
2023-05-09T22:00:50.353Z,93.20
2023-05-09T22:03:21.301Z,93.60
2023-05-09T22:05:50.950Z,94.00
2023-05-09T22:08:20.031Z,94.30
2023-05-09T22:10:48.795Z,94.80
2023-05-09T22:13:19.369Z,95.40
2023-05-09T22:15:48.009Z,96.20
2023-05-09T22:18:17.350Z,96.40
2023-05-09T22:20:47.989Z,97.30
2023-05-09T22:23:17.233Z,97.90
2023-05-09T22:25:46.355Z,98.60
2023-05-09T22:28:15.131Z,99.30
2023-05-09T22:30:43.785Z,99.80
2023-05-09T22:33:12.832Z,99.90
2023-05-09T22:35:42.101Z,99.90
2023-05-09T22:38:13.028Z,99.90
2023-05-09T22:40:42.175Z,99.90
2023-05-09T22:43:12.110Z,99.90
2023-05-09T22:45:41.111Z,99.90
2023-05-09T22:48:09.837Z,99.90
2023-05-09T22:50:38.995Z,99.90
2023-05-09T22:53:07.810Z,99.90
2023-05-09T22:55:39.083Z,99.90
2023-05-09T22:58:08.765Z,99.90
2023-05-09T23:00:37.948Z,99.90
2023-05-09T23:03:07.024Z,99.90
2023-05-09T23:05:36.377Z,99.90
2023-05-09T23:08:06.256Z,99.90
2023-05-09T23:10:35.104Z,99.90
2023-05-09T23:13:05.897Z,99.90
2023-05-09T23:15:35.038Z,99.90
2023-05-09T23:18:03.867Z,99.90
2023-05-09T23:20:32.797Z,99.90
2023-05-09T23:23:03.877Z,99.90
2023-05-09T23:25:32.961Z,99.90
2023-05-09T23:28:02.325Z,99.90
2023-05-09T23:30:32.726Z,99.90
2023-05-09T23:33:01.708Z,99.90
2023-05-09T23:35:33.327Z,99.90
2023-05-09T23:38:04.137Z,99.90
2023-05-09T23:40:33.430Z,99.90
2023-05-09T23:43:02.544Z,99.90
2023-05-09T23:45:33.189Z,99.90
2023-05-09T23:48:02.046Z,99.90
2023-05-09T23:50:30.831Z,99.90
2023-05-09T23:52:59.879Z,99.90
2023-05-09T23:55:28.990Z,99.90
2023-05-09T23:57:57.790Z,99.90
